Terminal Aerodrome Forecast
Issued by NWS Paducah, KY

Home | Current Version | Previous Version | Text Only | Print | Product List | Glossary Off
Versions: 1 2 3 4 5 6 7 8 9 10 11 12 13 14 15 16 17 18

000
FTUS43 KPAH 241700
TAFPAH
TAF
KPAH 241720Z 2418/2518 25017G25KT P6SM SCT035
      TEMPO 2418/2422 BKN035
     FM250000 25006KT P6SM SCT035 BKN070
      TEMPO 2502/2506 BKN035
     FM250800 26004KT P6SM SKC
     FM251400 29006KT P6SM SCT250=

USA.gov is the U.S. government's official web portal to all federal, state and local government web resources and services.